createdAt,value
2023-05-17T00:00:20.089Z,17.10
2023-05-17T00:02:46.987Z,17.00
2023-05-17T00:05:13.854Z,17.10
2023-05-17T00:07:40.776Z,17.00
2023-05-17T00:10:08.088Z,17.10
2023-05-17T00:12:35.013Z,17.10
2023-05-17T00:15:01.884Z,17.00
2023-05-17T00:17:28.860Z,17.00
2023-05-17T00:19:55.973Z,17.00
2023-05-17T00:22:22.831Z,17.00
2023-05-17T00:24:49.916Z,17.00
2023-05-17T00:27:16.694Z,17.10
2023-05-17T00:29:43.542Z,17.00
2023-05-17T00:32:10.506Z,17.10
2023-05-17T00:34:37.426Z,17.10
2023-05-17T00:37:04.635Z,17.00
2023-05-17T00:39:31.461Z,17.00
2023-05-17T00:41:58.301Z,17.00
2023-05-17T00:44:25.225Z,17.00
2023-05-17T00:46:52.061Z,17.00
2023-05-17T00:49:19.469Z,17.10
2023-05-17T00:51:46.466Z,17.10
2023-05-17T00:54:14.283Z,17.10
2023-05-17T00:56:41.307Z,17.10
2023-05-17T00:59:08.824Z,17.10
2023-05-17T01:01:36.984Z,17.10
2023-05-17T01:04:04.325Z,17.10
2023-05-17T01:06:31.406Z,17.10
2023-05-17T01:08:58.279Z,17.20
2023-05-17T01:11:56.233Z,17.10
2023-05-17T01:14:31.736Z,17.20
2023-05-17T01:17:06.227Z,17.30
2023-05-17T01:19:54.002Z,17.20
2023-05-17T01:22:48.552Z,17.20
2023-05-17T01:25:42.357Z,17.20
2023-05-17T01:28:12.361Z,17.20
2023-05-17T01:30:40.480Z,17.20
2023-05-17T01:33:09.016Z,17.10
2023-05-17T01:35:35.922Z,17.20
2023-05-17T01:38:02.734Z,17.20
2023-05-17T01:40:34.016Z,17.30
2023-05-17T01:43:23.525Z,17.30
2023-05-17T01:46:18.953Z,17.30
2023-05-17T01:48:56.901Z,17.40
2023-05-17T01:51:26.817Z,17.30
2023-05-17T01:54:01.763Z,17.30
2023-05-17T01:56:34.753Z,17.40
2023-05-17T01:59:04.859Z,17.40
2023-05-17T02:01:32.844Z,17.30
2023-05-17T02:03:59.724Z,17.30
2023-05-17T02:06:26.634Z,17.30
2023-05-17T02:08:53.713Z,17.30
2023-05-17T02:11:20.596Z,17.30
2023-05-17T02:13:47.382Z,17.30
2023-05-17T02:16:14.202Z,17.30
2023-05-17T02:18:41.403Z,17.30
2023-05-17T02:21:09.119Z,17.30
2023-05-17T02:23:35.999Z,17.10
2023-05-17T02:26:02.852Z,17.10
2023-05-17T02:28:29.746Z,17.10
2023-05-17T02:30:56.689Z,17.10
2023-05-17T02:33:23.739Z,17.20
2023-05-17T02:35:50.671Z,17.10
2023-05-17T02:38:17.553Z,17.20
2023-05-17T02:40:44.412Z,17.20
2023-05-17T02:43:11.256Z,17.10
2023-05-17T02:45:38.076Z,17.00
2023-05-17T02:48:05.022Z,16.90
2023-05-17T02:50:32.046Z,17.00
2023-05-17T02:52:58.952Z,17.00
2023-05-17T02:55:25.928Z,17.00
2023-05-17T02:57:52.872Z,17.00
2023-05-17T03:00:19.888Z,17.00
2023-05-17T03:02:46.883Z,17.00
2023-05-17T03:05:13.701Z,16.90
2023-05-17T03:07:40.564Z,17.00
2023-05-17T03:10:08.149Z,16.80
2023-05-17T03:12:34.956Z,16.70
2023-05-17T03:15:01.857Z,16.70
2023-05-17T03:17:28.769Z,16.80
2023-05-17T03:19:55.866Z,16.90
2023-05-17T03:22:22.653Z,16.90
2023-05-17T03:24:49.497Z,16.90
2023-05-17T03:27:16.927Z,17.00
2023-05-17T03:29:43.857Z,17.00
2023-05-17T03:32:10.748Z,17.10
2023-05-17T03:34:37.576Z,17.20
2023-05-17T03:37:04.569Z,17.20
2023-05-17T03:39:31.389Z,17.20
2023-05-17T03:41:58.280Z,17.20
2023-05-17T03:44:25.172Z,17.30
2023-05-17T03:46:52.056Z,17.40
2023-05-17T03:49:18.986Z,17.20
2023-05-17T03:51:45.823Z,17.20
2023-05-17T03:54:12.621Z,17.10
2023-05-17T03:56:39.441Z,17.10
2023-05-17T03:59:06.587Z,17.10
2023-05-17T04:01:34.057Z,17.00
2023-05-17T04:04:04.030Z,17.10
2023-05-17T04:06:30.901Z,17.00
2023-05-17T04:08:59.574Z,17.00
2023-05-17T04:11:27.527Z,17.20
2023-05-17T04:13:55.199Z,17.30
2023-05-17T04:16:22.205Z,17.40
2023-05-17T04:18:52.852Z,17.40
2023-05-17T04:21:20.149Z,17.40
2023-05-17T04:23:46.984Z,17.50
2023-05-17T04:26:15.009Z,17.50
2023-05-17T04:28:41.865Z,17.40
2023-05-17T04:31:08.927Z,17.40
2023-05-17T04:33:36.785Z,17.40
2023-05-17T04:36:04.138Z,17.50
2023-05-17T04:38:31.266Z,17.60
2023-05-17T04:41:05.474Z,17.80
2023-05-17T04:43:33.076Z,17.90
2023-05-17T04:46:00.683Z,17.90
2023-05-17T04:48:31.496Z,18.00
2023-05-17T04:51:02.494Z,18.00
2023-05-17T04:53:29.416Z,18.10
2023-05-17T04:55:56.734Z,18.10
2023-05-17T04:58:24.357Z,18.20
2023-05-17T05:00:52.181Z,18.20
2023-05-17T05:03:19.463Z,18.10
2023-05-17T05:05:46.404Z,18.10
2023-05-17T05:08:13.321Z,18.20
2023-05-17T05:10:40.225Z,18.20
2023-05-17T05:13:07.174Z,18.30
2023-05-17T05:15:34.008Z,18.30
2023-05-17T05:18:01.046Z,18.50
2023-05-17T05:20:28.339Z,18.40
2023-05-17T05:22:55.386Z,18.50
2023-05-17T05:25:22.214Z,18.40
2023-05-17T05:27:49.097Z,18.40
2023-05-17T05:30:22.316Z,18.40
2023-05-17T05:32:50.458Z,18.60
2023-05-17T05:35:18.085Z,18.60
2023-05-17T05:37:45.650Z,18.70
2023-05-17T05:40:13.106Z,18.80
2023-05-17T05:42:39.946Z,18.80
2023-05-17T05:45:08.342Z,18.80
2023-05-17T05:47:35.605Z,19.00
2023-05-17T05:50:02.641Z,19.10
2023-05-17T05:52:29.466Z,19.20
2023-05-17T05:54:56.325Z,19.20
2023-05-17T05:57:23.265Z,19.20
2023-05-17T05:59:50.208Z,19.20
2023-05-17T06:02:17.448Z,19.30
2023-05-17T06:04:45.843Z,19.40
2023-05-17T06:07:14.075Z,19.50
2023-05-17T06:09:41.445Z,19.80
2023-05-17T06:12:08.672Z,19.90
2023-05-17T06:14:37.745Z,19.90
2023-05-17T06:17:04.909Z,20.10
2023-05-17T06:19:31.943Z,20.20
2023-05-17T06:21:59.058Z,20.20
2023-05-17T06:24:25.991Z,20.40
2023-05-17T06:26:52.871Z,20.70
2023-05-17T06:29:19.726Z,20.60
2023-05-17T06:31:46.520Z,20.50
2023-05-17T06:34:13.428Z,20.70
2023-05-17T06:36:40.951Z,20.80
2023-05-17T06:39:07.895Z,20.70
2023-05-17T06:41:35.046Z,20.80
2023-05-17T06:44:01.949Z,20.90
2023-05-17T06:46:28.803Z,21.10
2023-05-17T06:48:56.380Z,21.20
2023-05-17T06:51:23.487Z,21.30
2023-05-17T06:53:50.432Z,21.50
2023-05-17T06:56:17.373Z,21.60
2023-05-17T06:58:44.274Z,21.60
2023-05-17T07:01:11.306Z,21.50
2023-05-17T07:03:38.221Z,21.70
2023-05-17T07:06:05.410Z,21.90
2023-05-17T07:08:32.260Z,21.80
2023-05-17T07:10:59.102Z,22.20
2023-05-17T07:13:26.002Z,22.30
2023-05-17T07:15:52.917Z,22.50
2023-05-17T07:18:31.796Z,22.50
2023-05-17T07:21:01.546Z,22.50
2023-05-17T07:23:33.976Z,22.50
2023-05-17T07:26:00.869Z,22.50
2023-05-17T07:28:30.580Z,22.60
2023-05-17T07:31:03.433Z,22.70
2023-05-17T07:33:36.112Z,22.70
2023-05-17T07:36:21.087Z,22.40
2023-05-17T07:38:53.628Z,22.10
2023-05-17T07:41:23.494Z,22.10
2023-05-17T07:43:55.485Z,22.20
2023-05-17T07:46:27.452Z,22.30
2023-05-17T07:49:03.183Z,22.40
2023-05-17T07:51:32.914Z,22.40
2023-05-17T07:53:59.825Z,22.50
2023-05-17T07:56:26.618Z,22.40
2023-05-17T07:58:53.467Z,22.50
2023-05-17T08:01:29.677Z,22.60
2023-05-17T08:03:59.303Z,22.50
2023-05-17T08:06:32.264Z,22.40
2023-05-17T08:08:59.124Z,22.40
2023-05-17T08:11:26.035Z,22.50
2023-05-17T08:13:56.258Z,22.50
2023-05-17T08:16:23.136Z,22.30
2023-05-17T08:18:50.129Z,22.30
2023-05-17T08:21:17.103Z,22.30
2023-05-17T08:23:49.355Z,22.40
2023-05-17T08:26:22.190Z,22.40
2023-05-17T08:29:22.774Z,22.30
2023-05-17T08:31:58.296Z,22.40
2023-05-17T08:34:28.103Z,22.50
2023-05-17T08:36:55.222Z,22.40
2023-05-17T08:39:22.204Z,22.40
2023-05-17T08:41:49.274Z,22.40
2023-05-17T08:44:17.216Z,22.40
2023-05-17T08:46:47.597Z,22.50
2023-05-17T08:49:37.492Z,22.50
2023-05-17T08:52:10.056Z,22.50
2023-05-17T08:54:37.685Z,22.50
2023-05-17T08:57:06.769Z,22.70
2023-05-17T08:59:35.239Z,22.70
2023-05-17T09:02:02.623Z,22.70
2023-05-17T09:04:31.388Z,22.90
2023-05-17T09:06:58.923Z,22.80
2023-05-17T09:09:26.695Z,22.80
2023-05-17T09:11:53.545Z,22.90
2023-05-17T09:14:20.733Z,22.70
2023-05-17T09:16:47.666Z,22.80
2023-05-17T09:19:17.609Z,22.80
2023-05-17T09:21:47.908Z,22.90
2023-05-17T09:24:14.812Z,23.00
2023-05-17T09:26:46.136Z,23.00
2023-05-17T09:29:15.550Z,23.10
2023-05-17T09:31:43.559Z,23.20
2023-05-17T09:34:11.063Z,23.40
2023-05-17T09:36:42.184Z,23.50
2023-05-17T09:39:12.337Z,23.40
2023-05-17T09:41:42.123Z,23.50
2023-05-17T09:44:10.492Z,23.60
2023-05-17T09:46:41.425Z,23.80
2023-05-17T09:49:09.381Z,24.10
2023-05-17T09:51:39.823Z,24.10
2023-05-17T09:54:07.378Z,24.10
2023-05-17T09:56:35.333Z,24.40
2023-05-17T09:59:03.328Z,24.50
2023-05-17T10:01:31.727Z,24.40
2023-05-17T10:04:04.920Z,24.20
2023-05-17T10:06:45.994Z,24.20
2023-05-17T10:09:17.032Z,24.60
2023-05-17T10:11:46.953Z,24.60
2023-05-17T10:14:19.127Z,24.90
2023-05-17T10:16:46.444Z,24.50
2023-05-17T10:19:14.273Z,24.60
2023-05-17T10:21:42.856Z,24.70
2023-05-17T10:24:11.405Z,24.70
2023-05-17T10:26:38.772Z,24.60
2023-05-17T10:29:06.164Z,24.50
2023-05-17T10:31:34.335Z,24.30
2023-05-17T10:34:02.369Z,24.10
2023-05-17T10:36:30.149Z,24.00
2023-05-17T10:38:58.535Z,24.20
2023-05-17T10:41:30.705Z,24.10
2023-05-17T10:43:59.030Z,24.10
2023-05-17T10:46:25.941Z,24.30
2023-05-17T10:48:54.245Z,24.50
2023-05-17T10:51:32.514Z,24.70
2023-05-17T10:54:08.204Z,24.60
2023-05-17T10:56:38.813Z,24.70
2023-05-17T10:59:23.746Z,24.80
2023-05-17T11:01:58.262Z,24.90
2023-05-17T11:04:33.806Z,25.10
2023-05-17T11:07:20.302Z,25.10
2023-05-17T11:09:50.446Z,25.30
2023-05-17T11:12:27.594Z,25.30
2023-05-17T11:14:55.689Z,25.30
2023-05-17T11:17:28.077Z,25.30
2023-05-17T11:19:55.117Z,25.40
2023-05-17T11:22:26.806Z,25.40
2023-05-17T11:24:57.283Z,25.60
2023-05-17T11:27:28.012Z,25.70
2023-05-17T11:29:55.652Z,25.70
2023-05-17T11:32:32.918Z,25.60
2023-05-17T11:35:01.170Z,25.60
2023-05-17T11:37:30.026Z,25.70
2023-05-17T11:40:08.382Z,25.80
2023-05-17T11:42:37.355Z,26.00
2023-05-17T11:45:05.189Z,25.90
2023-05-17T11:47:32.877Z,26.00
2023-05-17T11:50:04.148Z,25.90
2023-05-17T11:52:31.842Z,25.80
2023-05-17T11:55:00.697Z,25.70
2023-05-17T11:57:31.702Z,25.80
2023-05-17T12:00:05.050Z,25.90
2023-05-17T12:02:33.242Z,25.90
2023-05-17T12:05:00.427Z,26.10
2023-05-17T12:07:28.304Z,26.00
2023-05-17T12:09:55.190Z,26.10
2023-05-17T12:12:22.579Z,25.90
2023-05-17T12:14:50.716Z,25.80
2023-05-17T12:17:31.271Z,26.00
2023-05-17T12:20:09.687Z,25.90
2023-05-17T12:22:54.967Z,25.70
2023-05-17T12:25:25.617Z,25.10
2023-05-17T12:27:52.775Z,24.80
2023-05-17T12:30:19.999Z,24.50
2023-05-17T12:32:47.810Z,24.20
2023-05-17T12:35:14.964Z,24.00
2023-05-17T12:37:41.931Z,24.20
2023-05-17T12:40:09.356Z,24.10
2023-05-17T12:42:36.250Z,23.90
2023-05-17T12:45:03.300Z,23.80
2023-05-17T12:47:33.128Z,23.70
2023-05-17T12:50:03.366Z,23.90
2023-05-17T12:52:36.912Z,23.90
2023-05-17T12:55:04.798Z,23.90
2023-05-17T12:57:32.061Z,23.90
2023-05-17T12:59:59.077Z,23.90
2023-05-17T13:02:26.036Z,24.00
2023-05-17T13:04:53.123Z,24.00
2023-05-17T13:07:24.214Z,24.00
2023-05-17T13:09:51.732Z,24.10
2023-05-17T13:12:22.224Z,24.00
2023-05-17T13:15:00.707Z,24.10
2023-05-17T13:17:35.860Z,24.10
2023-05-17T13:20:04.818Z,24.00
2023-05-17T13:22:32.802Z,23.90
2023-05-17T13:24:59.665Z,23.80
2023-05-17T13:27:26.514Z,23.80
2023-05-17T13:29:53.395Z,23.80
2023-05-17T13:32:21.560Z,23.90
2023-05-17T13:34:48.388Z,24.00
2023-05-17T13:37:15.355Z,24.10
2023-05-17T13:39:42.299Z,24.30
2023-05-17T13:42:10.579Z,24.50
2023-05-17T13:44:38.428Z,24.50
2023-05-17T13:47:05.828Z,24.70
2023-05-17T13:49:32.752Z,24.90
2023-05-17T13:52:00.776Z,25.10
2023-05-17T13:54:27.767Z,25.50
2023-05-17T13:56:55.536Z,25.70
2023-05-17T13:59:22.542Z,26.00
2023-05-17T14:01:49.590Z,26.40
2023-05-17T14:04:21.280Z,26.50
2023-05-17T14:06:49.234Z,26.70
2023-05-17T14:09:16.833Z,26.90
2023-05-17T14:11:44.087Z,26.90
2023-05-17T14:14:10.920Z,26.80
2023-05-17T14:16:37.881Z,26.60
2023-05-17T14:19:05.157Z,26.30
2023-05-17T14:21:32.594Z,26.00
2023-05-17T14:23:59.440Z,25.50
2023-05-17T14:26:26.699Z,25.30
2023-05-17T14:28:53.673Z,25.20
2023-05-17T14:31:20.581Z,25.20
2023-05-17T14:33:47.593Z,25.20
2023-05-17T14:36:14.514Z,25.30
2023-05-17T14:38:41.471Z,25.30
2023-05-17T14:41:08.361Z,25.20
2023-05-17T14:43:35.200Z,24.90
2023-05-17T14:46:02.094Z,24.70
2023-05-17T14:48:29.096Z,24.50
2023-05-17T14:50:56.077Z,24.40
2023-05-17T14:53:23.507Z,24.30
2023-05-17T14:55:50.423Z,24.20
2023-05-17T14:58:17.223Z,24.20
2023-05-17T15:00:48.572Z,24.00
2023-05-17T15:03:21.764Z,24.00
2023-05-17T15:05:57.056Z,24.00
2023-05-17T15:08:23.969Z,23.90
2023-05-17T15:10:51.659Z,23.90
2023-05-17T15:13:18.622Z,23.90
2023-05-17T15:15:46.707Z,23.90
2023-05-17T15:18:16.227Z,23.90
2023-05-17T15:20:43.284Z,23.90
2023-05-17T15:23:10.143Z,23.80
2023-05-17T15:25:37.038Z,23.80
2023-05-17T15:28:04.012Z,23.80
2023-05-17T15:30:30.885Z,23.90
2023-05-17T15:32:59.227Z,23.80
2023-05-17T15:35:27.396Z,23.70
2023-05-17T15:37:54.551Z,23.50
2023-05-17T15:40:22.251Z,23.50
2023-05-17T15:42:51.378Z,23.40
2023-05-17T15:45:21.297Z,23.40
2023-05-17T15:47:49.402Z,23.40
2023-05-17T15:50:16.775Z,23.40
2023-05-17T15:52:43.818Z,23.40
2023-05-17T15:55:11.006Z,23.40
2023-05-17T15:57:37.878Z,23.40
2023-05-17T16:00:05.411Z,23.30
2023-05-17T16:02:32.405Z,23.40
2023-05-17T16:05:01.814Z,23.40
2023-05-17T16:07:30.336Z,23.30
2023-05-17T16:09:57.164Z,23.30
2023-05-17T16:12:24.008Z,23.20
2023-05-17T16:14:50.905Z,23.20
2023-05-17T16:17:17.695Z,23.20
2023-05-17T16:19:44.555Z,23.10
2023-05-17T16:22:11.490Z,23.10
2023-05-17T16:24:38.361Z,23.10
2023-05-17T16:27:07.309Z,23.20
2023-05-17T16:29:39.824Z,23.20
2023-05-17T16:32:07.912Z,23.10
2023-05-17T16:34:34.783Z,23.10
2023-05-17T16:37:01.677Z,23.10
2023-05-17T16:39:28.779Z,23.10
2023-05-17T16:41:56.040Z,23.10
2023-05-17T16:44:22.955Z,23.00
2023-05-17T16:46:50.316Z,23.00
2023-05-17T16:49:17.297Z,23.00
2023-05-17T16:51:45.426Z,22.90
2023-05-17T16:54:12.326Z,22.90
2023-05-17T16:56:39.516Z,22.70
2023-05-17T16:59:06.334Z,22.70
2023-05-17T17:01:33.352Z,22.60
2023-05-17T17:04:00.645Z,22.70
2023-05-17T17:06:27.623Z,22.70
2023-05-17T17:08:54.579Z,22.70
2023-05-17T17:11:24.311Z,22.80
2023-05-17T17:13:51.232Z,22.60
2023-05-17T17:16:18.303Z,22.80
2023-05-17T17:18:47.073Z,22.80
2023-05-17T17:21:14.665Z,22.80
2023-05-17T17:23:41.813Z,22.70
2023-05-17T17:26:08.924Z,22.60
2023-05-17T17:28:35.772Z,22.60
2023-05-17T17:31:02.642Z,22.50
2023-05-17T17:33:29.510Z,22.60
2023-05-17T17:35:56.460Z,22.50
2023-05-17T17:38:23.444Z,22.40
2023-05-17T17:40:50.492Z,22.50
2023-05-17T17:43:17.366Z,22.40
2023-05-17T17:45:46.993Z,22.40
2023-05-17T17:48:13.897Z,22.40
2023-05-17T17:50:40.846Z,22.40
2023-05-17T17:53:07.722Z,22.40
2023-05-17T17:55:34.647Z,22.30
2023-05-17T17:58:01.455Z,22.30
2023-05-17T18:00:28.550Z,22.40
2023-05-17T18:02:56.321Z,22.30
2023-05-17T18:05:23.190Z,22.30
2023-05-17T18:07:49.993Z,22.40
2023-05-17T18:10:16.826Z,22.30
2023-05-17T18:12:43.799Z,22.30
2023-05-17T18:15:11.633Z,22.30
2023-05-17T18:17:39.393Z,22.20
2023-05-17T18:20:07.019Z,22.10
2023-05-17T18:22:34.328Z,21.90
2023-05-17T18:25:01.162Z,21.80
2023-05-17T18:27:27.958Z,21.80
2023-05-17T18:29:54.873Z,21.80
2023-05-17T18:32:21.774Z,21.80
2023-05-17T18:34:48.867Z,21.80
2023-05-17T18:37:16.316Z,21.70
2023-05-17T18:39:43.156Z,21.70
2023-05-17T18:42:10.022Z,21.60
2023-05-17T18:44:37.073Z,21.50
2023-05-17T18:47:04.158Z,21.50
2023-05-17T18:49:31.363Z,21.50
2023-05-17T18:51:58.180Z,21.50
2023-05-17T18:54:25.095Z,21.30
2023-05-17T18:56:51.933Z,21.30
2023-05-17T18:59:19.259Z,21.20
2023-05-17T19:01:46.296Z,21.20
2023-05-17T19:04:14.506Z,21.30
2023-05-17T19:06:42.286Z,21.20
2023-05-17T19:09:09.300Z,21.30
2023-05-17T19:11:36.283Z,21.20
2023-05-17T19:14:03.346Z,21.10
2023-05-17T19:16:30.335Z,21.20
2023-05-17T19:18:57.239Z,21.10
2023-05-17T19:21:24.183Z,21.20
2023-05-17T19:23:51.119Z,21.20
2023-05-17T19:26:18.290Z,21.10
2023-05-17T19:28:45.162Z,21.10
2023-05-17T19:31:12.195Z,21.20
2023-05-17T19:33:39.119Z,21.10
2023-05-17T19:36:06.026Z,21.10
2023-05-17T19:38:33.361Z,21.00
2023-05-17T19:41:01.551Z,21.10
2023-05-17T19:43:28.655Z,21.00
2023-05-17T19:45:55.880Z,21.00
2023-05-17T19:48:24.257Z,20.80
2023-05-17T19:50:51.630Z,20.80
2023-05-17T19:53:18.603Z,20.80
2023-05-17T19:55:45.556Z,20.80
2023-05-17T19:58:12.382Z,20.80
2023-05-17T20:00:39.279Z,20.70
2023-05-17T20:03:06.338Z,20.80
2023-05-17T20:05:33.217Z,20.80
2023-05-17T20:08:02.586Z,20.70
2023-05-17T20:10:32.650Z,20.70
2023-05-17T20:12:59.697Z,20.80
2023-05-17T20:15:26.567Z,20.70
2023-05-17T20:17:53.493Z,20.70
2023-05-17T20:20:20.616Z,20.70
2023-05-17T20:22:47.882Z,20.70
2023-05-17T20:25:14.753Z,20.60
2023-05-17T20:27:41.592Z,20.60
2023-05-17T20:30:09.159Z,20.60
2023-05-17T20:32:36.084Z,20.60
2023-05-17T20:35:02.960Z,20.60
2023-05-17T20:37:29.819Z,20.60
2023-05-17T20:40:00.112Z,20.60
2023-05-17T20:42:28.241Z,20.60
2023-05-17T20:44:55.533Z,20.50
2023-05-17T20:47:22.532Z,20.50
2023-05-17T20:49:50.336Z,20.50
2023-05-17T20:52:31.270Z,20.50
2023-05-17T20:55:05.370Z,20.50
2023-05-17T20:57:32.264Z,20.60
2023-05-17T20:59:59.107Z,20.50
2023-05-17T21:02:26.449Z,20.60
2023-05-17T21:04:54.561Z,20.70
2023-05-17T21:07:22.456Z,20.70
2023-05-17T21:09:49.424Z,20.60
2023-05-17T21:12:16.298Z,20.50
2023-05-17T21:14:43.247Z,20.50
2023-05-17T21:17:10.479Z,20.50
2023-05-17T21:19:37.428Z,20.50
2023-05-17T21:22:04.551Z,20.50
2023-05-17T21:24:31.359Z,20.50
2023-05-17T21:26:58.493Z,20.40
2023-05-17T21:29:25.526Z,20.30
2023-05-17T21:31:52.441Z,20.30
2023-05-17T21:34:19.348Z,20.20
2023-05-17T21:36:46.377Z,20.20
2023-05-17T21:39:13.391Z,20.10
2023-05-17T21:41:40.165Z,20.10
2023-05-17T21:44:07.012Z,20.00
2023-05-17T21:46:33.831Z,20.00
2023-05-17T21:49:00.889Z,19.90
2023-05-17T21:51:27.697Z,19.90
2023-05-17T21:53:54.873Z,19.80
2023-05-17T21:56:21.826Z,19.80
2023-05-17T21:58:48.696Z,19.80
2023-05-17T22:01:17.363Z,19.80
2023-05-17T22:03:44.287Z,19.70
2023-05-17T22:06:11.237Z,19.70
2023-05-17T22:08:38.054Z,19.70
2023-05-17T22:11:05.672Z,19.70
2023-05-17T22:13:32.601Z,19.70
2023-05-17T22:15:59.548Z,19.60
2023-05-17T22:18:27.129Z,19.60
2023-05-17T22:20:55.090Z,19.60
2023-05-17T22:23:22.004Z,19.50
2023-05-17T22:25:48.838Z,19.60
2023-05-17T22:28:15.807Z,19.50
2023-05-17T22:30:44.904Z,19.40
2023-05-17T22:33:12.898Z,19.50
2023-05-17T22:35:41.168Z,19.40
2023-05-17T22:38:08.092Z,19.40
2023-05-17T22:40:34.975Z,19.30
2023-05-17T22:43:01.871Z,19.30
2023-05-17T22:45:33.406Z,19.30
2023-05-17T22:48:03.045Z,19.20
2023-05-17T22:50:33.038Z,19.10
2023-05-17T22:53:01.116Z,19.10
2023-05-17T22:55:28.411Z,19.10
2023-05-17T22:57:56.857Z,19.20
2023-05-17T23:00:25.362Z,19.10
2023-05-17T23:02:52.351Z,19.10
2023-05-17T23:05:19.210Z,19.00
2023-05-17T23:07:47.346Z,19.00
2023-05-17T23:10:15.390Z,19.00
2023-05-17T23:12:42.174Z,19.00
2023-05-17T23:15:09.520Z,18.90
2023-05-17T23:17:36.482Z,18.90
2023-05-17T23:20:09.947Z,18.90
2023-05-17T23:22:37.294Z,18.90
2023-05-17T23:25:06.034Z,18.80
2023-05-17T23:27:33.754Z,18.90
2023-05-17T23:30:01.145Z,18.80
2023-05-17T23:32:28.735Z,18.80
2023-05-17T23:35:03.274Z,18.80
2023-05-17T23:37:33.805Z,18.70
2023-05-17T23:40:00.746Z,18.80
2023-05-17T23:42:29.408Z,18.80
2023-05-17T23:44:56.327Z,18.70
2023-05-17T23:47:23.347Z,18.70
2023-05-17T23:49:50.189Z,18.60
2023-05-17T23:52:18.909Z,18.60
2023-05-17T23:54:47.277Z,18.60
2023-05-17T23:57:14.128Z,18.50
2023-05-17T23:59:41.347Z,18.50
